Terminal Aerodrome Forecast
Issued by NWS Blacksburg, VA

Current Version | Previous Version | Graphics & Text | Print | Product List | Glossary On
Versions: 1 2 3 4 5 6 7 8 9 10 11 12 13 14 15 16 17 18 19
000
FTUS41 KRNK 252340
TAFBLF
TAF
KBLF 252340Z 2600/2624 26006KT P6SM FEW050 BKN140
     FM260100 27004KT P6SM VCTS SCT050CB BKN080
     FM260400 VRB03KT P6SM VCSH BKN030
     FM261300 27007KT P6SM SCT035 BKN100
     FM261800 27008KT P6SM VCTS BKN040CB OVC250=

USA.gov is the U.S. government's official web portal to all federal, state and local government web resources and services.